Time;durP1;ratioP1;P1;durP2;ratioP2;P2;SDS_P1;SDS_P2;PMS_P1;PMS_P2;Temp;Humidity;BMP_temperature;BMP_pressure;BME280_temperature;BME280_humidity;BME280_pressure;Samples;Min_cycle;Max_cycle;Signal;HPM_P1;HPM_P2
2021/09/15 00:00:38;;;;;;;6.53;6.00;;;;;;;22.11;69.18;95529.53;5114179;28;20199;-83
2021/09/15 00:03:05;;;;;;;7.35;5.60;;;;;;;22.08;68.97;95531.84;5099231;28;20232;-84
2021/09/15 00:05:31;;;;;;;6.25;5.75;;;;;;;22.01;69.08;95534.66;5093143;28;20207;-83
2021/09/15 00:07:58;;;;;;;6.43;5.93;;;;;;;22.08;68.89;95527.38;5093420;28;20200;-83
2021/09/15 00:10:24;;;;;;;6.03;5.53;;;;;;;22.13;68.97;95526.66;5093043;28;20204;-83
2021/09/15 00:12:50;;;;;;;6.78;5.90;;;;;;;22.10;69.07;95517.44;5105868;28;20214;-83
2021/09/15 00:15:17;;;;;;;6.00;5.60;;;;;;;22.11;68.95;95523.47;5112802;28;20231;-83
2021/09/15 00:17:45;;;;;;;6.80;6.10;;;;;;;21.96;70.07;95513.59;5113458;28;20224;-83
2021/09/15 00:20:12;;;;;;;6.20;5.80;;;;;;;21.70;71.37;95512.59;5113462;28;20286;-82
2021/09/15 00:22:39;;;;;;;6.15;5.68;;;;;;;21.55;71.93;95504.59;5113725;28;20654;-83
2021/09/15 00:25:06;;;;;;;6.50;6.00;;;;;;;21.44;72.58;95506.31;5113193;28;20202;-83
2021/09/15 00:27:32;;;;;;;6.75;5.60;;;;;;;21.56;71.79;95511.38;5113314;28;20227;-83
2021/09/15 00:29:59;;;;;;;6.30;5.65;;;;;;;21.64;71.66;95509.13;5113428;28;20215;-83
2021/09/15 00:32:26;;;;;;;8.55;6.03;;;;;;;21.74;71.00;95505.84;5113707;28;20207;-83
2021/09/15 00:34:54;;;;;;;5.97;5.40;;;;;;;21.57;71.94;95505.13;5110252;28;20220;-83
2021/09/15 00:37:20;;;;;;;6.25;5.65;;;;;;;21.37;72.82;95501.25;5112658;28;20211;-84
2021/09/15 00:39:47;;;;;;;6.25;5.65;;;;;;;21.36;72.96;95496.25;5113269;27;20202;-83
2021/09/15 00:42:13;;;;;;;6.68;6.18;;;;;;;21.37;72.06;95496.00;5113292;28;20204;-83
2021/09/15 00:44:40;;;;;;;6.18;5.70;;;;;;;21.43;71.97;95493.44;5113043;28;20582;-83
2021/09/15 00:47:06;;;;;;;7.20;6.10;;;;;;;21.56;71.52;95490.44;5113344;28;20621;-83
2021/09/15 00:49:33;;;;;;;6.32;5.72;;;;;;;21.71;70.87;95493.22;5112057;28;20196;-83
2021/09/15 00:52:02;;;;;;;6.57;5.68;;;;;;;21.79;70.59;95500.63;5112853;28;20569;-83
2021/09/15 00:54:28;;;;;;;7.88;5.88;;;;;;;21.83;70.35;95493.06;5112384;28;20616;-84
2021/09/15 00:56:55;;;;;;;5.93;5.43;;;;;;;21.79;70.49;95484.88;5112665;28;20211;-83
2021/09/15 00:59:21;;;;;;;6.95;6.35;;;;;;;21.73;70.89;95488.53;5112502;28;20296;-83
2021/09/15 01:01:48;;;;;;;6.28;5.78;;;;;;;21.67;71.07;95492.13;5112590;27;20191;-83
2021/09/15 01:04:14;;;;;;;6.15;5.70;;;;;;;21.63;70.86;95496.28;5111625;28;20227;-83
2021/09/15 01:06:41;;;;;;;5.80;5.40;;;;;;;21.64;70.54;95493.41;5112100;28;20215;-83
2021/09/15 01:09:10;;;;;;;6.00;5.50;;;;;;;21.63;70.93;95502.31;5112303;28;20196;-83
2021/09/15 01:11:49;;;;;;;5.85;5.35;;;;;;;21.69;70.42;95498.72;5112330;28;20582;-83
2021/09/15 01:14:15;;;;;;;5.85;5.40;;;;;;;21.80;70.29;95502.19;5111969;28;20303;-84
2021/09/15 01:16:49;;;;;;;6.30;5.70;;;;;;;21.81;70.63;95506.41;5112296;28;20226;-83
2021/09/15 01:19:16;;;;;;;5.95;5.35;;;;;;;21.80;70.63;95507.44;5112835;28;20202;-83
2021/09/15 01:21:44;;;;;;;6.07;5.50;;;;;;;21.79;70.50;95502.44;5112058;28;20211;-83
2021/09/15 01:24:10;;;;;;;6.35;5.70;;;;;;;21.61;71.58;95504.38;5112413;28;20204;-84
2021/09/15 01:26:37;;;;;;;6.60;5.63;;;;;;;21.47;72.19;95495.34;5112513;28;20715;-84
2021/09/15 01:29:04;;;;;;;5.95;5.45;;;;;;;21.23;73.18;95496.66;5112081;28;20199;-83
2021/09/15 01:31:31;;;;;;;6.65;6.05;;;;;;;21.11;73.67;95493.34;5112377;28;20249;-83
2021/09/15 01:33:57;;;;;;;6.50;6.00;;;;;;;21.12;73.75;95485.25;5112108;28;20203;-83
2021/09/15 01:36:24;;;;;;;7.57;5.68;;;;;;;21.19;73.78;95485.03;5111955;28;20234;-83
2021/09/15 01:38:51;;;;;;;6.70;5.95;;;;;;;21.32;72.83;95488.13;5112092;28;20206;-83
2021/09/15 01:41:18;;;;;;;5.88;5.38;;;;;;;21.41;72.32;95488.44;5112185;28;20206;-84
2021/09/15 01:43:50;;;;;;;6.50;6.00;;;;;;;21.42;72.29;95482.19;5111840;28;20207;-83
2021/09/15 01:46:17;;;;;;;6.45;5.85;;;;;;;21.36;72.32;95491.81;5111366;28;20285;-83
2021/09/15 01:48:43;;;;;;;6.40;5.80;;;;;;;21.37;72.75;95487.34;5112069;28;20589;-83
2021/09/15 01:51:12;;;;;;;6.80;6.10;;;;;;;21.32;72.83;95490.75;5112188;28;20222;-83
2021/09/15 01:53:39;;;;;;;6.53;6.03;;;;;;;21.35;72.80;95478.97;5112087;28;20206;-83
2021/09/15 01:56:07;;;;;;;6.43;5.90;;;;;;;21.31;72.57;95476.06;5112094;28;20276;-83
2021/09/15 01:58:33;;;;;;;6.55;6.03;;;;;;;21.29;72.65;95475.50;5112237;28;20238;-82
2021/09/15 02:01:00;;;;;;;6.85;6.30;;;;;;;21.27;72.88;95471.56;5111944;28;20199;-83
2021/09/15 02:03:26;;;;;;;6.32;5.50;;;;;;;21.38;72.11;95475.84;5093584;28;20228;-83
2021/09/15 02:05:53;;;;;;;6.82;6.25;;;;;;;21.32;72.39;95472.41;5091565;28;20216;-83
2021/09/15 02:08:19;;;;;;;6.75;6.10;;;;;;;21.29;72.43;95466.88;5091800;28;20574;-83
2021/09/15 02:10:47;;;;;;;7.50;6.10;;;;;;;21.21;72.32;95470.69;5091533;28;20212;-83
2021/09/15 02:13:14;;;;;;;7.82;6.80;;;;;;;21.18;72.47;95472.97;5091645;28;20204;-83
2021/09/15 02:15:41;;;;;;;6.38;5.78;;;;;;;21.12;72.66;95469.53;5090767;28;20228;-84
2021/09/15 02:18:07;;;;;;;6.65;5.78;;;;;;;20.99;73.34;95469.88;5091980;28;20200;-82
2021/09/15 02:20:35;;;;;;;6.55;5.90;;;;;;;20.88;73.42;95463.75;5091800;28;20665;-83
2021/09/15 02:23:02;;;;;;;6.78;6.18;;;;;;;20.76;74.04;95459.69;5091783;28;20196;-83
2021/09/15 02:25:29;;;;;;;6.75;6.25;;;;;;;20.79;73.85;95457.34;5091390;28;20673;-83
2021/09/15 02:27:55;;;;;;;6.50;6.00;;;;;;;20.77;74.30;95454.22;5091809;28;20201;-82
2021/09/15 02:30:23;;;;;;;6.78;5.80;;;;;;;20.83;73.92;95452.44;5091947;28;20208;-83
2021/09/15 02:32:49;;;;;;;6.70;6.10;;;;;;;20.87;73.72;95459.56;5092519;28;20200;-82
2021/09/15 02:35:16;;;;;;;6.35;5.85;;;;;;;20.86;73.79;95455.34;5097784;28;20276;-83
2021/09/15 02:37:42;;;;;;;6.18;5.68;;;;;;;20.92;73.44;95449.16;5112366;28;20215;-82
2021/09/15 02:40:10;;;;;;;6.53;5.93;;;;;;;20.90;73.53;95453.84;5112629;28;20245;-82
2021/09/15 02:42:36;;;;;;;6.00;5.40;;;;;;;20.96;73.13;95450.25;5112203;28;20215;-82
2021/09/15 02:45:03;;;;;;;5.97;5.47;;;;;;;20.94;72.72;95451.53;5111991;28;20199;-81
2021/09/15 02:47:31;;;;;;;6.32;5.72;;;;;;;20.88;73.15;95449.88;5112315;28;20608;-82
2021/09/15 02:49:57;;;;;;;5.97;5.47;;;;;;;20.86;73.28;95452.72;5112417;28;20196;-83
2021/09/15 02:52:24;;;;;;;6.13;5.55;;;;;;;20.76;73.34;95447.41;5112639;28;20204;-83
2021/09/15 02:54:50;;;;;;;6.05;5.55;;;;;;;20.75;73.47;95439.78;5111950;28;20212;-83
2021/09/15 02:57:17;;;;;;;6.03;5.53;;;;;;;20.70;73.56;95440.50;5103682;28;20224;-83
2021/09/15 02:59:43;;;;;;;6.32;5.80;;;;;;;20.66;73.86;95442.03;5091567;28;20561;-83
2021/09/15 03:02:09;;;;;;;6.30;5.72;;;;;;;20.68;74.04;95447.81;5097574;28;20187;-82
2021/09/15 03:04:37;;;;;;;6.55;6.00;;;;;;;20.62;73.81;95439.09;5111865;28;20200;-82
2021/09/15 03:07:04;;;;;;;6.68;5.97;;;;;;;20.55;74.19;95448.97;5111922;28;20227;-82
2021/09/15 03:09:30;;;;;;;5.60;5.20;;;;;;;20.51;74.46;95458.31;5111350;28;20591;-82
2021/09/15 03:11:57;;;;;;;6.15;5.65;;;;;;;20.54;74.42;95452.59;5110538;28;20208;-82
2021/09/15 03:14:23;;;;;;;6.35;5.75;;;;;;;20.63;74.33;95455.56;5115561;28;20199;-82
2021/09/15 03:16:50;;;;;;;6.47;5.88;;;;;;;20.74;73.41;95449.47;5115759;28;20231;-83
2021/09/15 03:19:16;;;;;;;6.55;5.80;;;;;;;20.79;73.14;95462.56;5116051;28;20203;-83
2021/09/15 03:21:44;;;;;;;6.30;5.80;;;;;;;20.75;73.03;95458.88;5115151;28;20200;-83
2021/09/15 03:24:10;;;;;;;6.55;5.95;;;;;;;20.78;72.85;95452.38;5115445;28;20570;-83
2021/09/15 03:26:37;;;;;;;6.75;5.93;;;;;;;20.69;73.38;95450.19;5114844;28;20709;-82
2021/09/15 03:29:03;;;;;;;6.32;5.78;;;;;;;20.60;73.71;95443.78;5115480;28;20202;-82
2021/09/15 03:31:30;;;;;;;6.78;6.28;;;;;;;20.58;74.00;95447.69;5115882;28;20290;-82
2021/09/15 03:33:57;;;;;;;6.70;6.10;;;;;;;20.58;73.60;95451.09;5115605;28;20199;-82
2021/09/15 03:36:23;;;;;;;6.70;6.13;;;;;;;20.59;73.64;95446.66;5114927;28;20741;-83
2021/09/15 03:38:51;;;;;;;6.30;5.80;;;;;;;20.60;73.67;95442.97;5114947;28;20202;-82
2021/09/15 03:41:18;;;;;;;6.63;6.03;;;;;;;20.44;74.55;95443.81;5114969;28;20678;-83
2021/09/15 03:43:44;;;;;;;6.72;6.18;;;;;;;20.28;75.41;95438.34;5114965;28;20206;-82
2021/09/15 03:46:10;;;;;;;5.95;5.50;;;;;;;20.37;74.68;95438.78;5115110;28;20219;-82
2021/09/15 03:48:37;;;;;;;6.22;5.72;;;;;;;20.41;74.24;95439.06;5112425;28;20196;-83
2021/09/15 03:51:04;;;;;;;7.75;6.18;;;;;;;20.42;74.26;95443.25;5092975;28;20695;-83
2021/09/15 03:53:30;;;;;;;6.22;5.70;;;;;;;20.46;74.23;95436.53;5092300;28;20206;-83
2021/09/15 03:56:03;;;;;;;7.03;6.03;;;;;;;20.45;74.16;95430.50;5092541;28;20220;-83
2021/09/15 03:58:33;;;;;;;6.55;5.93;;;;;;;20.27;75.25;95428.91;5109335;28;20225;-83
2021/09/15 04:01:00;;;;;;;6.88;6.30;;;;;;;20.17;75.43;95425.38;5093175;28;20212;-83
2021/09/15 04:03:29;;;;;;;7.82;5.90;;;;;;;20.28;75.11;95427.09;5109572;28;20227;-84
2021/09/15 04:05:56;;;;;;;6.40;5.90;;;;;;;20.34;74.15;95424.31;5112957;28;20223;-83
2021/09/15 04:08:22;;;;;;;6.65;6.13;;;;;;;20.43;73.94;95426.53;5112680;28;20192;-82
2021/09/15 04:10:49;;;;;;;6.85;6.28;;;;;;;20.32;74.50;95422.97;5113128;28;20207;-83
2021/09/15 04:13:19;;;;;;;6.80;6.20;;;;;;;20.25;74.78;95420.53;5113327;28;20207;-83
2021/09/15 04:15:46;;;;;;;6.65;5.82;;;;;;;20.17;75.33;95413.13;5112591;28;20244;-83
2021/09/15 04:18:14;;;;;;;6.93;6.25;;;;;;;20.17;75.05;95423.56;5113410;28;20207;-82
2021/09/15 04:20:41;;;;;;;6.78;6.03;;;;;;;20.21;75.20;95424.66;5113480;28;20582;-86
2021/09/15 04:23:16;;;;;;;6.80;6.20;;;;;;;20.27;74.60;95418.47;5113587;28;20229;-82
2021/09/15 04:31:22;;;;;;;6.05;5.45;;;;;;;20.26;74.77;95426.53;5106652;28;20313;-83
2021/09/15 04:33:49;;;;;;;6.40;5.90;;;;;;;20.31;73.99;95424.81;5093053;28;20200;-81
2021/09/15 04:36:17;;;;;;;5.80;5.30;;;;;;;20.33;74.27;95421.94;5100484;28;20238;-82
2021/09/15 04:38:44;;;;;;;6.05;5.47;;;;;;;20.33;74.37;95414.91;5113447;28;20191;-83
2021/09/15 04:41:24;;;;;;;6.55;5.95;;;;;;;20.30;74.28;95420.59;5110158;28;20203;-82
2021/09/15 04:43:58;;;;;;;7.35;5.82;;;;;;;20.20;75.47;95424.91;5106216;28;20199;-82
2021/09/15 04:46:25;;;;;;;6.55;5.95;;;;;;;20.16;75.41;95421.19;5097545;28;20233;-82
2021/09/15 04:48:52;;;;;;;6.22;5.68;;;;;;;20.14;75.77;95428.47;5110077;28;20237;-83
2021/09/15 04:51:19;;;;;;;6.20;5.57;;;;;;;20.19;75.77;95436.41;5112483;28;20250;-83
2021/09/15 04:53:45;;;;;;;6.15;5.65;;;;;;;20.26;75.29;95429.97;5112644;28;20214;-83
2021/09/15 04:56:15;;;;;;;6.60;6.00;;;;;;;20.33;74.48;95435.81;5111993;28;20227;-83
2021/09/15 04:58:43;;;;;;;6.25;5.65;;;;;;;20.24;75.15;95437.25;5112228;28;20204;-82
2021/09/15 05:01:14;;;;;;;6.10;5.60;;;;;;;20.34;74.58;95434.78;5098852;28;20203;-82
2021/09/15 05:03:40;;;;;;;6.30;5.75;;;;;;;20.43;74.24;95437.78;5111080;28;20656;-83
2021/09/15 05:06:40;;;;;;;6.72;5.97;;;;;;;20.56;73.37;95442.69;5107265;28;20218;-83
2021/09/15 05:09:13;;;;;;;6.38;5.75;;;;;;;20.59;73.19;95460.50;5059025;28;20693;-83
2021/09/15 05:11:39;;;;;;;5.82;5.30;;;;;;;20.59;73.27;95451.88;5113965;28;20682;-81
2021/09/15 05:14:17;;;;;;;5.72;5.22;;;;;;;20.54;72.73;95451.81;5113677;28;20206;-83
2021/09/15 05:16:47;;;;;;;5.47;4.97;;;;;;;20.47;71.93;95457.22;5114012;28;20230;-83
2021/09/15 05:19:27;;;;;;;5.72;4.95;;;;;;;20.44;71.63;95456.88;5113330;28;20750;-82
2021/09/15 05:21:54;;;;;;;5.80;5.20;;;;;;;20.43;72.10;95448.25;5113287;28;20227;-83
2021/09/15 05:24:20;;;;;;;6.95;5.03;;;;;;;20.30;72.65;95451.97;5113391;28;20208;-83
2021/09/15 05:26:47;;;;;;;7.22;5.38;;;;;;;20.28;73.12;95450.63;5112182;28;20223;-83
2021/09/15 05:29:22;;;;;;;7.95;5.43;;;;;;;20.32;73.19;95446.50;5113395;28;20210;-82
2021/09/15 05:31:52;;;;;;;8.93;6.65;;;;;;;20.38;72.98;95440.38;5112598;28;20199;-85
2021/09/15 05:34:19;;;;;;;6.00;5.40;;;;;;;20.35;73.50;95440.81;5112518;28;20801;-86
2021/09/15 05:36:46;;;;;;;6.30;5.70;;;;;;;20.35;73.82;95440.81;5106783;28;20232;-85
2021/09/15 05:39:18;;;;;;;6.47;5.63;;;;;;;20.44;73.83;95446.44;5093554;28;20263;-85
2021/09/15 05:41:44;;;;;;;7.38;6.55;;;;;;;20.48;74.60;95439.69;5096413;28;20199;-85
2021/09/15 05:44:10;;;;;;;6.53;5.93;;;;;;;20.53;74.02;95434.53;5111944;28;20211;-85
2021/09/15 05:46:37;;;;;;;8.18;6.50;;;;;;;20.44;74.51;95439.38;5113894;28;20215;-86
2021/09/15 05:49:05;;;;;;;8.00;6.70;;;;;;;20.45;75.40;95448.81;5113400;28;20206;-88
2021/09/15 05:51:34;;;;;;;7.90;6.80;;;;;;;20.51;74.72;95453.09;5109487;28;20210;-86
2021/09/15 05:54:00;;;;;;;8.27;6.55;;;;;;;20.61;74.91;95449.78;5108970;28;20577;-85
2021/09/15 05:56:28;;;;;;;5.53;5.03;;;;;;;20.69;74.02;95449.38;5110091;28;20256;-84
2021/09/15 05:59:06;;;;;;;10.10;5.38;;;;;;;20.75;74.01;95460.72;5110048;28;20732;-86
2021/09/15 06:01:35;;;;;;;5.78;5.28;;;;;;;20.75;73.76;95453.66;5111705;28;20244;-85
2021/09/15 06:04:14;;;;;;;6.53;5.32;;;;;;;20.73;74.24;95458.34;5108487;28;20226;-86
2021/09/15 06:06:54;;;;;;;7.63;5.07;;;;;;;20.74;74.48;95457.31;5108122;28;20215;-86
2021/09/15 06:09:24;;;;;;;6.15;5.55;;;;;;;20.73;74.33;95457.53;5110627;28;20203;-88
2021/09/15 06:11:59;;;;;;;16.25;5.53;;;;;;;20.78;74.44;95457.63;5091418;28;20828;-83
2021/09/15 06:14:26;;;;;;;11.02;5.65;;;;;;;20.84;73.84;95456.63;5102966;28;20242;-83
2021/09/15 06:16:56;;;;;;;6.13;5.10;;;;;;;20.89;74.20;95465.34;5111397;28;20219;-83
2021/09/15 06:19:31;;;;;;;5.68;5.18;;;;;;;20.82;75.18;95463.94;5112069;28;20601;-83
2021/09/15 06:22:11;;;;;;;8.48;5.47;;;;;;;20.89;74.76;95459.31;5111459;28;20229;-82
2021/09/15 06:24:40;;;;;;;5.55;5.10;;;;;;;20.94;73.79;95468.03;5113471;28;20596;-83
2021/09/15 06:27:11;;;;;;;6.15;5.65;;;;;;;21.04;73.79;95467.34;5111643;28;20223;-83
2021/09/15 06:29:40;;;;;;;15.65;14.07;;;;;;;21.10;73.80;95465.56;5111764;28;20630;-83
2021/09/15 06:32:10;;;;;;;11.07;10.07;;;;;;;21.13;73.57;95465.09;5112445;28;20199;-84
2021/09/15 06:34:38;;;;;;;6.63;5.60;;;;;;;21.12;73.72;95466.91;5114544;28;20224;-83
2021/09/15 06:37:05;;;;;;;7.70;5.78;;;;;;;21.14;73.64;95472.69;5104920;28;20234;-83
2021/09/15 06:39:31;;;;;;;6.40;5.43;;;;;;;21.12;73.85;95471.34;5101869;28;20215;-83
2021/09/15 06:42:12;;;;;;;6.65;5.38;;;;;;;21.16;74.15;95462.78;5110291;28;20267;-83
2021/09/15 06:44:46;;;;;;;6.53;5.38;;;;;;;21.23;74.04;95459.97;5118509;28;20211;-83
2021/09/15 06:47:43;;;;;;;6.22;5.65;;;;;;;21.25;73.83;95458.69;5120382;28;20225;-84
2021/09/15 06:50:12;;;;;;;7.85;5.47;;;;;;;21.24;74.21;95464.97;5115044;27;20270;-87
2021/09/15 06:52:48;;;;;;;6.72;6.00;;;;;;;21.29;73.82;95464.25;5116875;28;20202;-86
2021/09/15 06:55:15;;;;;;;6.43;5.78;;;;;;;21.29;73.87;95470.28;5116605;28;20222;-85
2021/09/15 06:57:53;;;;;;;7.15;5.55;;;;;;;21.35;73.69;95468.50;5099244;22;20229;-85
2021/09/15 07:00:21;;;;;;;6.32;5.72;;;;;;;21.32;74.32;95469.00;5061632;28;20259;-82
2021/09/15 07:02:55;;;;;;;6.07;5.55;;;;;;;21.32;74.72;95463.75;5061220;28;20221;-81
2021/09/15 07:05:24;;;;;;;5.75;5.25;;;;;;;21.27;74.44;95467.09;5067190;28;20201;-82
2021/09/15 07:07:55;;;;;;;6.00;5.22;;;;;;;21.29;74.78;95461.63;5067609;28;20221;-82
2021/09/15 07:10:21;;;;;;;6.20;5.43;;;;;;;21.33;75.93;95463.50;5066863;28;20202;-83
2021/09/15 07:13:03;;;;;;;6.05;5.55;;;;;;;21.41;75.06;95470.13;5065991;28;20193;-83
2021/09/15 07:15:42;;;;;;;6.25;5.20;;;;;;;21.45;75.19;95463.34;5065865;28;20261;-82
2021/09/15 07:18:08;;;;;;;7.07;5.85;;;;;;;21.51;75.21;95469.44;5065956;28;20213;-83
2021/09/15 07:20:38;;;;;;;7.65;5.53;;;;;;;21.53;75.18;95464.75;5064668;28;20204;-83
2021/09/15 07:23:14;;;;;;;10.07;8.00;;;;;;;21.59;74.87;95466.34;5063117;28;20198;-83
2021/09/15 07:25:42;;;;;;;6.40;5.75;;;;;;;21.65;75.51;95476.66;5063892;28;20235;-84
2021/09/15 07:28:24;;;;;;;6.35;5.75;;;;;;;21.67;75.19;95474.56;5062400;28;20631;-84
2021/09/15 07:30:51;;;;;;;6.68;5.57;;;;;;;21.73;74.61;95477.25;5067437;28;20216;-84
2021/09/15 07:33:18;;;;;;;6.82;6.10;;;;;;;21.76;75.18;95474.09;5061515;28;20714;-83
2021/09/15 07:35:45;;;;;;;6.88;6.18;;;;;;;21.84;75.40;95478.91;5049870;28;20285;-84
2021/09/15 07:38:12;;;;;;;7.00;6.30;;;;;;;21.83;75.04;95479.94;5052483;28;20580;-83
2021/09/15 07:40:38;;;;;;;6.68;5.90;;;;;;;21.90;75.20;95481.34;5052386;28;20212;-83
2021/09/15 07:43:05;;;;;;;6.15;5.50;;;;;;;21.91;75.42;95475.06;5046845;28;20203;-84
2021/09/15 07:45:31;;;;;;;6.57;5.97;;;;;;;22.02;74.78;95478.56;5032461;28;20206;-84
2021/09/15 07:47:58;;;;;;;51.13;46.08;;;;;;;22.03;74.14;95472.28;5033007;28;20198;-83
2021/09/15 07:50:34;;;;;;;9.45;8.55;;;;;;;22.12;73.41;95477.84;5032489;28;20202;-84
2021/09/15 07:53:01;;;;;;;6.93;6.32;;;;;;;22.21;72.82;95476.34;5032219;28;20300;-83
2021/09/15 07:55:28;;;;;;;8.50;6.20;;;;;;;22.23;72.74;95479.50;5032853;28;20210;-84
2021/09/15 07:57:54;;;;;;;7.10;5.82;;;;;;;22.32;71.43;95470.13;5043793;28;20236;-84
2021/09/15 08:00:24;;;;;;;6.47;5.97;;;;;;;22.32;71.54;95478.75;5032491;28;20206;-83
2021/09/15 08:02:50;;;;;;;8.18;5.93;;;;;;;22.29;70.91;95475.88;5033188;28;20213;-83
2021/09/15 08:05:17;;;;;;;6.90;5.97;;;;;;;22.34;71.07;95471.44;5026605;28;20611;-84
2021/09/15 08:07:46;;;;;;;6.93;6.22;;;;;;;22.38;70.51;95474.34;5042346;28;20222;-84
2021/09/15 08:10:14;;;;;;;7.88;6.20;;;;;;;22.37;70.15;95457.81;5030556;28;20214;-84
2021/09/15 08:12:41;;;;;;;7.20;6.28;;;;;;;22.35;70.31;95449.41;5042129;28;20190;-83
2021/09/15 08:15:08;;;;;;;6.72;6.13;;;;;;;22.38;70.15;95443.66;5051982;28;20200;-86
2021/09/15 08:17:35;;;;;;;7.32;6.63;;;;;;;22.39;70.38;95433.97;5049383;28;20229;-84
2021/09/15 08:20:01;;;;;;;6.90;6.28;;;;;;;22.35;70.74;95432.88;5051668;28;20197;-84
2021/09/15 08:22:28;;;;;;;6.93;6.28;;;;;;;22.37;70.05;95433.41;5051043;28;20205;-83
2021/09/15 08:24:54;;;;;;;8.13;6.47;;;;;;;22.40;70.44;95430.28;5051308;28;20208;-84
2021/09/15 08:27:22;;;;;;;7.25;6.50;;;;;;;22.42;70.97;95438.69;5051395;28;20224;-84
2021/09/15 08:29:49;;;;;;;9.02;6.47;;;;;;;22.55;70.20;95443.47;5051635;28;20201;-84
2021/09/15 08:32:16;;;;;;;6.93;6.22;;;;;;;22.67;69.59;95444.09;5051525;28;20201;-83
2021/09/15 08:34:42;;;;;;;6.75;6.07;;;;;;;22.77;69.27;95442.53;5051356;28;20198;-84
2021/09/15 08:37:09;;;;;;;11.13;6.38;;;;;;;22.86;69.17;95439.22;5035097;28;20230;-84
2021/09/15 08:39:35;;;;;;;7.28;6.55;;;;;;;22.91;68.62;95436.56;5039399;28;20288;-84
2021/09/15 08:42:02;;;;;;;7.60;6.88;;;;;;;22.98;68.51;95439.78;5044716;28;20195;-84
2021/09/15 08:44:29;;;;;;;7.78;6.78;;;;;;;23.01;68.28;95433.22;5031685;28;20198;-83
2021/09/15 08:46:58;;;;;;;8.18;6.25;;;;;;;23.04;68.18;95437.97;5040077;28;20217;-83
2021/09/15 08:49:26;;;;;;;8.32;6.72;;;;;;;23.01;68.61;95447.13;5050792;28;20589;-84
2021/09/15 08:51:53;;;;;;;7.93;7.13;;;;;;;23.06;69.08;95439.28;5051393;28;20212;-84
2021/09/15 08:54:20;;;;;;;8.15;6.22;;;;;;;23.21;68.62;95435.91;5051143;28;20224;-83
2021/09/15 08:56:46;;;;;;;7.03;6.30;;;;;;;23.42;67.28;95442.00;5050433;28;20572;-83
2021/09/15 08:59:13;;;;;;;8.55;6.07;;;;;;;23.43;66.76;95430.44;5051198;28;20216;-83
2021/09/15 09:01:44;;;;;;;7.28;6.10;;;;;;;23.43;68.15;95425.97;5046962;28;20197;-84
2021/09/15 09:04:14;;;;;;;8.73;6.03;;;;;;;23.46;67.91;95427.28;5043551;28;20288;-83
2021/09/15 09:06:41;;;;;;;6.63;6.03;;;;;;;23.45;65.85;95427.53;5047830;28;20237;-84
2021/09/15 09:09:07;;;;;;;6.63;6.10;;;;;;;23.48;65.82;95433.03;5039069;28;20708;-84
2021/09/15 09:11:36;;;;;;;7.05;6.43;;;;;;;23.46;65.66;95429.13;5039172;28;20208;-85
2021/09/15 09:14:05;;;;;;;7.75;6.60;;;;;;;23.47;65.55;95430.72;5050837;28;20197;-83
2021/09/15 09:16:42;;;;;;;7.50;6.72;;;;;;;23.44;65.63;95429.38;5050780;28;20237;-84
2021/09/15 09:19:10;;;;;;;6.25;5.72;;;;;;;23.47;65.82;95428.88;5050943;28;20225;-83
2021/09/15 09:21:39;;;;;;;6.75;6.15;;;;;;;23.47;66.09;95441.22;5049881;28;20673;-84
2021/09/15 09:24:07;;;;;;;6.70;5.88;;;;;;;23.41;65.27;95449.09;5044449;28;20642;-84
2021/09/15 09:26:52;;;;;;;6.43;5.93;;;;;;;23.41;65.14;95438.56;5030581;28;20309;-84
2021/09/15 09:29:21;;;;;;;7.18;5.43;;;;;;;23.44;65.58;95447.78;5030629;28;20261;-84
2021/09/15 09:32:01;;;;;;;5.70;5.28;;;;;;;23.46;65.66;95445.69;5030664;28;20198;-84
2021/09/15 09:34:29;;;;;;;7.63;6.03;;;;;;;23.47;65.55;95446.47;5030815;28;20202;-84
2021/09/15 09:37:00;;;;;;;7.00;6.20;;;;;;;23.48;65.93;95448.81;5030311;28;20811;-84
2021/09/15 09:39:35;;;;;;;6.65;5.97;;;;;;;23.47;66.01;95460.41;5037214;28;20220;-84
2021/09/15 09:42:01;;;;;;;6.07;5.43;;;;;;;23.49;66.69;95481.13;5050371;28;20283;-84
2021/09/15 09:44:31;;;;;;;5.85;5.25;;;;;;;23.46;67.59;95485.09;5049168;28;20201;-84
2021/09/15 09:47:18;;;;;;;6.88;5.93;;;;;;;23.38;68.43;95491.66;5040312;28;20226;-84
2021/09/15 09:49:58;;;;;;;7.65;6.00;;;;;;;23.39;68.64;95495.84;5048146;28;20198;-84
2021/09/15 09:52:24;;;;;;;9.88;8.52;;;;;;;23.42;67.53;95491.91;5049532;28;20197;-84
2021/09/15 09:54:58;;;;;;;23.60;21.17;;;;;;;23.52;67.80;95481.44;5049256;28;20295;-84
2021/09/15 09:57:25;;;;;;;10.90;9.90;;;;;;;23.65;67.53;95488.06;5031883;28;20742;-84
2021/09/15 09:59:52;;;;;;;7.35;6.40;;;;;;;23.80;68.00;95480.19;5043378;28;20205;-83
2021/09/15 10:02:20;;;;;;;6.82;6.22;;;;;;;23.93;66.52;95490.19;5029776;28;20202;-84
2021/09/15 10:04:48;;;;;;;6.93;6.32;;;;;;;24.03;66.36;95482.31;5043097;28;20208;-84
2021/09/15 10:07:16;;;;;;;6.68;6.13;;;;;;;24.06;65.62;95484.38;5049623;28;20221;-84
2021/09/15 10:09:44;;;;;;;6.80;6.30;;;;;;;24.17;65.74;95487.81;5049674;28;20201;-84
2021/09/15 10:12:11;;;;;;;6.90;6.30;;;;;;;24.00;65.64;95476.78;5043110;28;20419;-85
2021/09/15 10:14:39;;;;;;;7.18;6.50;;;;;;;23.99;65.70;95478.63;5030203;28;20571;-84
2021/09/15 10:17:08;;;;;;;7.50;6.80;;;;;;;24.01;65.56;95488.88;5048325;28;20712;-84
2021/09/15 10:19:40;;;;;;;8.70;6.53;;;;;;;23.98;65.72;95492.81;5050063;28;20217;-87
2021/09/15 10:22:08;;;;;;;7.10;6.50;;;;;;;24.02;65.37;95488.63;5049544;28;20197;-84
2021/09/15 10:24:50;;;;;;;7.75;7.00;;;;;;;24.04;65.50;95497.03;5049527;28;20588;-84
2021/09/15 10:27:19;;;;;;;7.30;6.57;;;;;;;23.98;65.39;95494.66;5049511;28;20232;-84
2021/09/15 10:30:01;;;;;;;8.73;6.72;;;;;;;23.91;65.09;95487.03;5049454;28;20229;-83
2021/09/15 10:32:35;;;;;;;7.40;6.70;;;;;;;23.87;66.97;95493.06;5042880;28;20658;-84
2021/09/15 10:35:03;;;;;;;7.07;6.47;;;;;;;23.96;66.05;95484.41;5030141;28;21010;-84
2021/09/15 10:37:51;;;;;;;7.03;6.43;;;;;;;23.94;66.55;95488.34;5029655;28;20226;-86
2021/09/15 10:40:35;;;;;;;7.30;6.03;;;;;;;23.88;66.71;95486.75;5043507;28;20209;-83
2021/09/15 10:43:02;;;;;;;6.75;6.13;;;;;;;23.87;66.27;95477.28;5044441;28;20194;-84
2021/09/15 10:45:30;;;;;;;34.33;31.23;;;;;;;23.91;66.79;95492.28;5049194;28;20762;-84
2021/09/15 10:50:54;;;;;;;7.55;6.55;;;;;;;24.04;66.78;95485.72;5045687;28;20859;-84
2021/09/15 10:53:22;;;;;;;8.32;6.47;;;;;;;24.03;66.86;95481.50;5035420;28;20230;-83
2021/09/15 10:55:52;;;;;;;6.82;6.28;;;;;;;24.03;66.55;95479.66;5028129;28;20213;-84
2021/09/15 10:58:21;;;;;;;8.20;7.40;;;;;;;24.03;66.61;95466.53;5045179;28;20260;-84
2021/09/15 11:00:50;;;;;;;7.20;6.57;;;;;;;24.03;66.90;95465.72;5047804;28;20281;-84
2021/09/15 11:03:30;;;;;;;7.32;6.63;;;;;;;24.01;68.03;95470.47;5048839;28;20202;-83
2021/09/15 11:05:59;;;;;;;6.82;6.32;;;;;;;24.09;66.75;95464.66;5047346;28;20304;-83
2021/09/15 11:08:39;;;;;;;6.80;6.07;;;;;;;24.15;66.58;95471.50;5040844;28;20202;-84
2021/09/15 11:11:07;;;;;;;13.82;11.05;;;;;;;24.22;66.63;95471.25;5027800;28;20321;-85
2021/09/15 11:14:07;;;;;;;6.82;6.22;;;;;;;24.32;65.40;95466.00;5028801;28;20217;-84
2021/09/15 11:16:37;;;;;;;7.43;5.82;;;;;;;24.37;64.59;95469.41;4996273;28;20720;-82
2021/09/15 11:19:07;;;;;;;7.03;6.05;;;;;;;24.41;63.80;95459.94;5029496;28;20287;-84
2021/09/15 11:21:39;;;;;;;6.50;5.90;;;;;;;24.41;63.47;95467.81;5027735;28;20700;-85
2021/09/15 11:24:11;;;;;;;5.78;5.22;;;;;;;24.43;64.28;95467.56;5028275;28;20300;-85
2021/09/15 11:26:49;;;;;;;6.32;5.70;;;;;;;24.42;63.56;95473.88;5034102;28;20766;-84
2021/09/15 11:29:36;;;;;;;11.45;8.95;;;;;;;24.41;62.17;95467.81;5028484;28;20194;-84
2021/09/15 11:32:03;;;;;;;9.55;7.57;;;;;;;24.24;62.95;95471.81;5038230;28;20545;-83
2021/09/15 11:34:31;;;;;;;6.45;5.95;;;;;;;24.23;62.93;95472.81;5050887;28;20190;-84
2021/09/15 11:37:00;;;;;;;6.05;5.55;;;;;;;24.27;63.23;95479.94;5051904;28;20811;-84
2021/09/15 11:39:26;;;;;;;6.20;5.60;;;;;;;24.24;62.94;95477.84;5050461;28;20213;-84
2021/09/15 11:42:03;;;;;;;6.03;5.18;;;;;;;24.17;63.21;95485.19;5051903;28;20198;-84
2021/09/15 11:44:30;;;;;;;7.50;5.38;;;;;;;24.13;63.41;95491.22;5051250;28;20201;-83
2021/09/15 11:47:01;;;;;;;5.82;5.20;;;;;;;24.14;63.73;95483.06;5043274;28;20273;-84
2021/09/15 11:49:33;;;;;;;6.13;5.22;;;;;;;24.10;64.37;95488.06;5036060;28;20221;-85